sensor_id;sensor_type;location;lat;lon;timestamp;temperature;humidity
30628;DHT22;17394;50.890;4.724;2024-03-29T00:00:01;8.10;99.90
30628;DHT22;17394;50.890;4.724;2024-03-29T00:02:28;8.10;99.90
30628;DHT22;17394;50.890;4.724;2024-03-29T00:04:55;8.00;99.90
30628;DHT22;17394;50.890;4.724;2024-03-29T00:07:23;7.80;99.90
30628;DHT22;17394;50.890;4.724;2024-03-29T00:09:49;7.70;99.90
30628;DHT22;17394;50.890;4.724;2024-03-29T00:12:15;7.70;99.90
30628;DHT22;17394;50.890;4.724;2024-03-29T00:14:41;7.70;99.90
30628;DHT22;17394;50.890;4.724;2024-03-29T00:17:09;7.70;99.90
30628;DHT22;17394;50.890;4.724;2024-03-29T00:19:35;7.70;99.90
30628;DHT22;17394;50.890;4.724;2024-03-29T00:22:01;7.80;99.90
30628;DHT22;17394;50.890;4.724;2024-03-29T00:24:29;7.80;99.90
30628;DHT22;17394;50.890;4.724;2024-03-29T00:26:55;7.90;99.90
30628;DHT22;17394;50.890;4.724;2024-03-29T00:29:21;8.00;99.90
30628;DHT22;17394;50.890;4.724;2024-03-29T00:31:48;8.10;99.90
30628;DHT22;17394;50.890;4.724;2024-03-29T00:34:14;8.30;99.90
30628;DHT22;17394;50.890;4.724;2024-03-29T00:36:40;8.30;99.90
30628;DHT22;17394;50.890;4.724;2024-03-29T00:39:08;8.40;99.90
30628;DHT22;17394;50.890;4.724;2024-03-29T00:41:37;8.50;99.90
30628;DHT22;17394;50.890;4.724;2024-03-29T00:44:05;8.50;99.90
30628;DHT22;17394;50.890;4.724;2024-03-29T00:46:31;8.50;99.90
30628;DHT22;17394;50.890;4.724;2024-03-29T00:48:57;8.60;99.90
30628;DHT22;17394;50.890;4.724;2024-03-29T00:51:24;8.60;99.90
30628;DHT22;17394;50.890;4.724;2024-03-29T00:53:51;8.60;99.90
30628;DHT22;17394;50.890;4.724;2024-03-29T00:56:17;8.70;99.90
30628;DHT22;17394;50.890;4.724;2024-03-29T00:58:44;8.70;99.90
30628;DHT22;17394;50.890;4.724;2024-03-29T01:01:11;8.60;99.90
30628;DHT22;17394;50.890;4.724;2024-03-29T01:03:37;8.70;99.90
30628;DHT22;17394;50.890;4.724;2024-03-29T01:06:03;8.70;99.90
30628;DHT22;17394;50.890;4.724;2024-03-29T01:08:30;8.80;99.90
30628;DHT22;17394;50.890;4.724;2024-03-29T01:10:56;8.80;99.90
30628;DHT22;17394;50.890;4.724;2024-03-29T01:13:22;8.90;99.90
30628;DHT22;17394;50.890;4.724;2024-03-29T01:15:48;9.00;99.90
30628;DHT22;17394;50.890;4.724;2024-03-29T01:18:15;9.00;99.90
30628;DHT22;17394;50.890;4.724;2024-03-29T01:20:41;9.00;99.90
30628;DHT22;17394;50.890;4.724;2024-03-29T01:23:09;9.10;99.90
30628;DHT22;17394;50.890;4.724;2024-03-29T01:25:36;9.10;99.90
30628;DHT22;17394;50.890;4.724;2024-03-29T01:28:02;9.20;99.90
30628;DHT22;17394;50.890;4.724;2024-03-29T01:30:30;9.20;99.90
30628;DHT22;17394;50.890;4.724;2024-03-29T01:32:56;9.60;99.90
30628;DHT22;17394;50.890;4.724;2024-03-29T01:35:22;9.20;99.90
30628;DHT22;17394;50.890;4.724;2024-03-29T01:37:48;9.20;99.90
30628;DHT22;17394;50.890;4.724;2024-03-29T01:40:16;9.30;99.90
30628;DHT22;17394;50.890;4.724;2024-03-29T01:42:42;9.30;99.90
30628;DHT22;17394;50.890;4.724;2024-03-29T01:45:08;9.30;99.90
30628;DHT22;17394;50.890;4.724;2024-03-29T01:47:38;9.40;99.90
30628;DHT22;17394;50.890;4.724;2024-03-29T01:50:05;9.40;99.90
30628;DHT22;17394;50.890;4.724;2024-03-29T01:52:32;9.50;99.90
30628;DHT22;17394;50.890;4.724;2024-03-29T01:54:58;9.40;99.90
30628;DHT22;17394;50.890;4.724;2024-03-29T01:57:25;9.40;99.90
30628;DHT22;17394;50.890;4.724;2024-03-29T01:59:52;9.40;99.90
30628;DHT22;17394;50.890;4.724;2024-03-29T02:02:19;9.40;99.90
30628;DHT22;17394;50.890;4.724;2024-03-29T02:04:46;9.40;99.90
30628;DHT22;17394;50.890;4.724;2024-03-29T02:07:12;9.30;99.90
30628;DHT22;17394;50.890;4.724;2024-03-29T02:09:40;9.30;99.90
30628;DHT22;17394;50.890;4.724;2024-03-29T02:12:07;9.30;99.90
30628;DHT22;17394;50.890;4.724;2024-03-29T02:14:39;9.30;99.90
30628;DHT22;17394;50.890;4.724;2024-03-29T02:17:06;9.20;99.90
30628;DHT22;17394;50.890;4.724;2024-03-29T02:19:33;9.20;99.90
30628;DHT22;17394;50.890;4.724;2024-03-29T02:22:01;9.20;99.90
30628;DHT22;17394;50.890;4.724;2024-03-29T02:24:31;9.20;99.90
30628;DHT22;17394;50.890;4.724;2024-03-29T02:26:58;9.20;99.90
30628;DHT22;17394;50.890;4.724;2024-03-29T02:29:25;9.10;99.90
30628;DHT22;17394;50.890;4.724;2024-03-29T02:31:52;9.00;99.90
30628;DHT22;17394;50.890;4.724;2024-03-29T02:34:19;8.90;99.90
30628;DHT22;17394;50.890;4.724;2024-03-29T02:36:47;8.90;99.90
30628;DHT22;17394;50.890;4.724;2024-03-29T02:39:13;8.80;99.90
30628;DHT22;17394;50.890;4.724;2024-03-29T02:41:40;8.80;99.90
30628;DHT22;17394;50.890;4.724;2024-03-29T02:44:07;8.70;99.90
30628;DHT22;17394;50.890;4.724;2024-03-29T02:46:34;8.70;99.90
30628;DHT22;17394;50.890;4.724;2024-03-29T02:49:00;8.60;99.90
30628;DHT22;17394;50.890;4.724;2024-03-29T02:51:26;8.60;99.90
30628;DHT22;17394;50.890;4.724;2024-03-29T02:53:52;8.60;99.90
30628;DHT22;17394;50.890;4.724;2024-03-29T02:56:18;8.50;99.90
30628;DHT22;17394;50.890;4.724;2024-03-29T02:58:47;8.40;99.90
30628;DHT22;17394;50.890;4.724;2024-03-29T03:01:13;8.40;99.90
30628;DHT22;17394;50.890;4.724;2024-03-29T03:03:40;8.30;99.90
30628;DHT22;17394;50.890;4.724;2024-03-29T03:06:06;8.20;99.90
30628;DHT22;17394;50.890;4.724;2024-03-29T03:08:33;8.20;99.90
30628;DHT22;17394;50.890;4.724;2024-03-29T03:11:19;8.10;99.90
30628;DHT22;17394;50.890;4.724;2024-03-29T03:13:45;8.00;99.90
30628;DHT22;17394;50.890;4.724;2024-03-29T03:16:12;8.00;99.90
30628;DHT22;17394;50.890;4.724;2024-03-29T03:18:38;8.00;99.90
30628;DHT22;17394;50.890;4.724;2024-03-29T03:21:05;7.90;99.90
30628;DHT22;17394;50.890;4.724;2024-03-29T03:23:32;7.80;99.90
30628;DHT22;17394;50.890;4.724;2024-03-29T03:26:00;7.80;99.90
30628;DHT22;17394;50.890;4.724;2024-03-29T03:28:28;7.80;99.90
30628;DHT22;17394;50.890;4.724;2024-03-29T03:30:54;7.80;99.90
30628;DHT22;17394;50.890;4.724;2024-03-29T03:33:22;7.80;99.90
30628;DHT22;17394;50.890;4.724;2024-03-29T03:35:49;7.70;99.90
30628;DHT22;17394;50.890;4.724;2024-03-29T03:38:16;7.70;99.90
30628;DHT22;17394;50.890;4.724;2024-03-29T03:40:42;7.70;99.90
30628;DHT22;17394;50.890;4.724;2024-03-29T03:43:09;7.60;99.90
30628;DHT22;17394;50.890;4.724;2024-03-29T03:45:36;7.60;99.90
30628;DHT22;17394;50.890;4.724;2024-03-29T03:48:10;7.60;99.90
30628;DHT22;17394;50.890;4.724;2024-03-29T03:50:38;7.60;99.90
30628;DHT22;17394;50.890;4.724;2024-03-29T03:53:04;7.60;99.90
30628;DHT22;17394;50.890;4.724;2024-03-29T03:55:31;7.60;99.90
30628;DHT22;17394;50.890;4.724;2024-03-29T03:57:57;7.50;99.90
30628;DHT22;17394;50.890;4.724;2024-03-29T04:00:23;7.50;99.90
30628;DHT22;17394;50.890;4.724;2024-03-29T04:02:50;7.50;99.90
30628;DHT22;17394;50.890;4.724;2024-03-29T04:05:18;7.50;99.90
30628;DHT22;17394;50.890;4.724;2024-03-29T04:07:44;7.50;99.90
30628;DHT22;17394;50.890;4.724;2024-03-29T04:10:11;7.50;99.90
30628;DHT22;17394;50.890;4.724;2024-03-29T04:12:37;7.40;99.90
30628;DHT22;17394;50.890;4.724;2024-03-29T04:15:05;7.50;99.90
30628;DHT22;17394;50.890;4.724;2024-03-29T04:17:32;7.40;99.90
30628;DHT22;17394;50.890;4.724;2024-03-29T04:19:59;7.40;99.90
30628;DHT22;17394;50.890;4.724;2024-03-29T04:22:28;7.40;99.90
30628;DHT22;17394;50.890;4.724;2024-03-29T04:24:54;7.40;99.90
30628;DHT22;17394;50.890;4.724;2024-03-29T04:27:22;7.40;99.90
30628;DHT22;17394;50.890;4.724;2024-03-29T04:29:53;7.40;99.90
30628;DHT22;17394;50.890;4.724;2024-03-29T04:32:19;7.30;99.90
30628;DHT22;17394;50.890;4.724;2024-03-29T04:34:49;7.40;99.90
30628;DHT22;17394;50.890;4.724;2024-03-29T04:37:16;7.30;99.90
30628;DHT22;17394;50.890;4.724;2024-03-29T04:39:44;7.40;99.90
30628;DHT22;17394;50.890;4.724;2024-03-29T04:42:11;7.40;99.90
30628;DHT22;17394;50.890;4.724;2024-03-29T04:44:37;7.40;99.90
30628;DHT22;17394;50.890;4.724;2024-03-29T04:47:04;7.30;99.90
30628;DHT22;17394;50.890;4.724;2024-03-29T04:49:30;7.30;99.90
30628;DHT22;17394;50.890;4.724;2024-03-29T04:52:06;7.30;99.90
30628;DHT22;17394;50.890;4.724;2024-03-29T04:54:35;7.30;99.90
30628;DHT22;17394;50.890;4.724;2024-03-29T04:57:02;7.40;99.90
30628;DHT22;17394;50.890;4.724;2024-03-29T04:59:33;7.30;99.90
30628;DHT22;17394;50.890;4.724;2024-03-29T05:01:59;7.40;99.90
30628;DHT22;17394;50.890;4.724;2024-03-29T05:04:26;7.30;99.90
30628;DHT22;17394;50.890;4.724;2024-03-29T05:06:57;7.30;99.90
30628;DHT22;17394;50.890;4.724;2024-03-29T05:09:24;7.30;99.90
30628;DHT22;17394;50.890;4.724;2024-03-29T05:11:51;7.40;99.90
30628;DHT22;17394;50.890;4.724;2024-03-29T05:14:19;7.30;99.90
30628;DHT22;17394;50.890;4.724;2024-03-29T05:16:47;7.30;99.90
30628;DHT22;17394;50.890;4.724;2024-03-29T05:19:14;7.30;99.90
30628;DHT22;17394;50.890;4.724;2024-03-29T05:21:42;7.40;99.90
30628;DHT22;17394;50.890;4.724;2024-03-29T05:24:08;7.40;99.90
30628;DHT22;17394;50.890;4.724;2024-03-29T05:26:35;7.30;99.90
30628;DHT22;17394;50.890;4.724;2024-03-29T05:29:01;7.40;99.90
30628;DHT22;17394;50.890;4.724;2024-03-29T05:31:31;7.40;99.90
30628;DHT22;17394;50.890;4.724;2024-03-29T05:33:57;7.40;99.90
30628;DHT22;17394;50.890;4.724;2024-03-29T05:36:26;7.30;99.90
30628;DHT22;17394;50.890;4.724;2024-03-29T05:38:52;7.30;99.90
30628;DHT22;17394;50.890;4.724;2024-03-29T05:41:18;7.40;99.90
30628;DHT22;17394;50.890;4.724;2024-03-29T05:43:44;7.40;99.90
30628;DHT22;17394;50.890;4.724;2024-03-29T05:46:11;7.30;99.90
30628;DHT22;17394;50.890;4.724;2024-03-29T05:48:37;7.40;99.90
30628;DHT22;17394;50.890;4.724;2024-03-29T05:51:04;7.40;99.90
30628;DHT22;17394;50.890;4.724;2024-03-29T05:53:32;7.40;99.90
30628;DHT22;17394;50.890;4.724;2024-03-29T05:55:58;7.40;99.90
30628;DHT22;17394;50.890;4.724;2024-03-29T05:58:25;7.40;99.90
30628;DHT22;17394;50.890;4.724;2024-03-29T06:00:51;7.40;99.90
30628;DHT22;17394;50.890;4.724;2024-03-29T06:03:17;7.40;99.90
30628;DHT22;17394;50.890;4.724;2024-03-29T06:05:43;7.40;99.90
30628;DHT22;17394;50.890;4.724;2024-03-29T06:08:09;7.40;99.90
30628;DHT22;17394;50.890;4.724;2024-03-29T06:10:36;7.40;99.90
30628;DHT22;17394;50.890;4.724;2024-03-29T06:13:07;7.40;99.90
30628;DHT22;17394;50.890;4.724;2024-03-29T06:15:43;7.50;99.90
30628;DHT22;17394;50.890;4.724;2024-03-29T06:18:29;7.50;99.90
30628;DHT22;17394;50.890;4.724;2024-03-29T06:20:55;7.60;99.90
30628;DHT22;17394;50.890;4.724;2024-03-29T06:23:21;7.60;99.90
30628;DHT22;17394;50.890;4.724;2024-03-29T06:25:48;7.60;99.90
30628;DHT22;17394;50.890;4.724;2024-03-29T06:28:15;7.70;99.90
30628;DHT22;17394;50.890;4.724;2024-03-29T06:30:42;7.70;99.90
30628;DHT22;17394;50.890;4.724;2024-03-29T06:33:08;7.70;99.90
30628;DHT22;17394;50.890;4.724;2024-03-29T06:35:40;7.80;99.90
30628;DHT22;17394;50.890;4.724;2024-03-29T06:38:09;7.80;99.90
30628;DHT22;17394;50.890;4.724;2024-03-29T06:40:36;7.90;99.90
30628;DHT22;17394;50.890;4.724;2024-03-29T06:43:03;8.10;99.90
30628;DHT22;17394;50.890;4.724;2024-03-29T06:45:30;8.20;99.90
30628;DHT22;17394;50.890;4.724;2024-03-29T06:47:57;8.20;99.90
30628;DHT22;17394;50.890;4.724;2024-03-29T06:50:26;8.30;99.90
30628;DHT22;17394;50.890;4.724;2024-03-29T06:52:52;8.30;99.90
30628;DHT22;17394;50.890;4.724;2024-03-29T06:55:18;8.30;99.90
30628;DHT22;17394;50.890;4.724;2024-03-29T06:57:45;8.40;99.90
30628;DHT22;17394;50.890;4.724;2024-03-29T07:00:13;8.40;99.90
30628;DHT22;17394;50.890;4.724;2024-03-29T07:02:39;8.50;99.90
30628;DHT22;17394;50.890;4.724;2024-03-29T07:05:06;8.50;99.90
30628;DHT22;17394;50.890;4.724;2024-03-29T07:07:33;8.60;99.90
30628;DHT22;17394;50.890;4.724;2024-03-29T07:10:00;8.70;99.90
30628;DHT22;17394;50.890;4.724;2024-03-29T07:12:26;8.80;99.90
30628;DHT22;17394;50.890;4.724;2024-03-29T07:14:52;9.00;99.90
30628;DHT22;17394;50.890;4.724;2024-03-29T07:17:19;9.20;99.90
30628;DHT22;17394;50.890;4.724;2024-03-29T07:19:45;9.30;99.90
30628;DHT22;17394;50.890;4.724;2024-03-29T07:22:12;9.30;99.90
30628;DHT22;17394;50.890;4.724;2024-03-29T07:24:39;9.30;99.90
30628;DHT22;17394;50.890;4.724;2024-03-29T07:27:05;9.30;99.90
30628;DHT22;17394;50.890;4.724;2024-03-29T07:29:32;9.30;99.90
30628;DHT22;17394;50.890;4.724;2024-03-29T07:32:00;9.30;99.90
30628;DHT22;17394;50.890;4.724;2024-03-29T07:34:26;9.30;99.90
30628;DHT22;17394;50.890;4.724;2024-03-29T07:36:53;9.20;99.90
30628;DHT22;17394;50.890;4.724;2024-03-29T07:39:19;9.30;99.90
30628;DHT22;17394;50.890;4.724;2024-03-29T07:41:46;9.30;99.90
30628;DHT22;17394;50.890;4.724;2024-03-29T07:44:12;9.30;99.90
30628;DHT22;17394;50.890;4.724;2024-03-29T07:46:38;9.30;99.90
30628;DHT22;17394;50.890;4.724;2024-03-29T07:49:05;9.30;99.90
30628;DHT22;17394;50.890;4.724;2024-03-29T07:51:35;9.30;99.90
30628;DHT22;17394;50.890;4.724;2024-03-29T07:54:07;9.30;99.90
30628;DHT22;17394;50.890;4.724;2024-03-29T07:56:33;9.30;99.90
30628;DHT22;17394;50.890;4.724;2024-03-29T07:59:00;9.30;99.90
30628;DHT22;17394;50.890;4.724;2024-03-29T08:01:28;9.30;99.90
30628;DHT22;17394;50.890;4.724;2024-03-29T08:03:55;9.40;99.90
30628;DHT22;17394;50.890;4.724;2024-03-29T08:06:24;9.50;99.90
30628;DHT22;17394;50.890;4.724;2024-03-29T08:08:50;9.50;99.90
30628;DHT22;17394;50.890;4.724;2024-03-29T08:11:17;9.60;99.90
30628;DHT22;17394;50.890;4.724;2024-03-29T08:13:48;9.70;99.90
30628;DHT22;17394;50.890;4.724;2024-03-29T08:16:14;9.70;99.90
30628;DHT22;17394;50.890;4.724;2024-03-29T08:18:47;9.80;99.90
30628;DHT22;17394;50.890;4.724;2024-03-29T08:21:15;9.90;99.90
30628;DHT22;17394;50.890;4.724;2024-03-29T08:23:41;10.00;99.90
30628;DHT22;17394;50.890;4.724;2024-03-29T08:26:10;10.10;99.90
30628;DHT22;17394;50.890;4.724;2024-03-29T08:28:37;10.20;99.90
30628;DHT22;17394;50.890;4.724;2024-03-29T08:31:06;10.30;99.90
30628;DHT22;17394;50.890;4.724;2024-03-29T08:33:35;10.40;99.90
30628;DHT22;17394;50.890;4.724;2024-03-29T08:36:09;10.40;99.90
30628;DHT22;17394;50.890;4.724;2024-03-29T08:38:40;10.60;99.90
30628;DHT22;17394;50.890;4.724;2024-03-29T08:41:09;10.60;99.90
30628;DHT22;17394;50.890;4.724;2024-03-29T08:43:35;10.70;99.90
30628;DHT22;17394;50.890;4.724;2024-03-29T08:46:02;10.70;99.90
30628;DHT22;17394;50.890;4.724;2024-03-29T08:48:35;10.80;99.90
30628;DHT22;17394;50.890;4.724;2024-03-29T08:51:06;10.80;99.90
30628;DHT22;17394;50.890;4.724;2024-03-29T08:53:32;10.90;99.90
30628;DHT22;17394;50.890;4.724;2024-03-29T08:56:04;11.00;99.90
30628;DHT22;17394;50.890;4.724;2024-03-29T08:58:30;11.30;99.90
30628;DHT22;17394;50.890;4.724;2024-03-29T09:00:56;11.40;99.90
30628;DHT22;17394;50.890;4.724;2024-03-29T09:03:28;11.60;99.90
30628;DHT22;17394;50.890;4.724;2024-03-29T09:05:56;11.70;99.90
30628;DHT22;17394;50.890;4.724;2024-03-29T09:08:25;11.90;99.90
30628;DHT22;17394;50.890;4.724;2024-03-29T09:10:56;12.00;99.90
30628;DHT22;17394;50.890;4.724;2024-03-29T09:13:23;12.00;99.90
30628;DHT22;17394;50.890;4.724;2024-03-29T09:15:49;12.10;99.90
30628;DHT22;17394;50.890;4.724;2024-03-29T09:18:18;12.30;99.90
30628;DHT22;17394;50.890;4.724;2024-03-29T09:21:01;12.50;99.90
30628;DHT22;17394;50.890;4.724;2024-03-29T09:23:28;12.80;99.90
30628;DHT22;17394;50.890;4.724;2024-03-29T09:25:56;12.70;99.90
30628;DHT22;17394;50.890;4.724;2024-03-29T09:28:24;12.80;99.90
30628;DHT22;17394;50.890;4.724;2024-03-29T09:31:00;12.90;99.90
30628;DHT22;17394;50.890;4.724;2024-03-29T09:33:28;13.10;99.90
30628;DHT22;17394;50.890;4.724;2024-03-29T09:35:55;13.20;99.90
30628;DHT22;17394;50.890;4.724;2024-03-29T09:38:28;13.50;99.90
30628;DHT22;17394;50.890;4.724;2024-03-29T09:41:10;13.70;99.90
30628;DHT22;17394;50.890;4.724;2024-03-29T09:43:38;13.90;99.90
30628;DHT22;17394;50.890;4.724;2024-03-29T09:46:05;14.00;99.90
30628;DHT22;17394;50.890;4.724;2024-03-29T09:48:35;14.10;99.90
30628;DHT22;17394;50.890;4.724;2024-03-29T09:51:10;14.10;99.90
30628;DHT22;17394;50.890;4.724;2024-03-29T09:53:42;14.10;99.90
30628;DHT22;17394;50.890;4.724;2024-03-29T09:56:10;14.10;99.90
30628;DHT22;17394;50.890;4.724;2024-03-29T09:58:40;14.00;99.90
30628;DHT22;17394;50.890;4.724;2024-03-29T10:01:12;13.90;99.90
30628;DHT22;17394;50.890;4.724;2024-03-29T10:03:48;13.90;99.90
30628;DHT22;17394;50.890;4.724;2024-03-29T10:06:18;13.90;99.90
30628;DHT22;17394;50.890;4.724;2024-03-29T10:08:46;13.90;99.90
30628;DHT22;17394;50.890;4.724;2024-03-29T10:11:14;13.90;99.90
30628;DHT22;17394;50.890;4.724;2024-03-29T10:13:45;14.00;99.90
30628;DHT22;17394;50.890;4.724;2024-03-29T10:16:14;13.90;99.90
30628;DHT22;17394;50.890;4.724;2024-03-29T10:18:46;14.10;99.90
30628;DHT22;17394;50.890;4.724;2024-03-29T10:21:15;14.10;99.90
30628;DHT22;17394;50.890;4.724;2024-03-29T10:23:45;14.30;99.90
30628;DHT22;17394;50.890;4.724;2024-03-29T10:26:13;14.60;99.90
30628;DHT22;17394;50.890;4.724;2024-03-29T10:28:40;14.80;99.90
30628;DHT22;17394;50.890;4.724;2024-03-29T10:31:07;15.00;99.90
30628;DHT22;17394;50.890;4.724;2024-03-29T10:33:37;15.10;99.90
30628;DHT22;17394;50.890;4.724;2024-03-29T10:36:04;15.00;99.90
30628;DHT22;17394;50.890;4.724;2024-03-29T10:38:34;14.80;99.90
30628;DHT22;17394;50.890;4.724;2024-03-29T10:41:02;14.60;99.90
30628;DHT22;17394;50.890;4.724;2024-03-29T10:43:33;14.40;99.90
30628;DHT22;17394;50.890;4.724;2024-03-29T10:46:03;14.50;99.90
30628;DHT22;17394;50.890;4.724;2024-03-29T10:48:31;14.50;99.90
30628;DHT22;17394;50.890;4.724;2024-03-29T10:50:59;14.70;99.90
30628;DHT22;17394;50.890;4.724;2024-03-29T10:53:30;15.00;99.90
30628;DHT22;17394;50.890;4.724;2024-03-29T10:55:58;15.50;99.90
30628;DHT22;17394;50.890;4.724;2024-03-29T10:58:30;15.60;99.90
30628;DHT22;17394;50.890;4.724;2024-03-29T11:01:01;15.60;99.90
30628;DHT22;17394;50.890;4.724;2024-03-29T11:03:57;15.80;99.90
30628;DHT22;17394;50.890;4.724;2024-03-29T11:06:27;15.70;99.90
30628;DHT22;17394;50.890;4.724;2024-03-29T11:08:59;15.40;99.90
30628;DHT22;17394;50.890;4.724;2024-03-29T11:11:27;15.20;99.90
30628;DHT22;17394;50.890;4.724;2024-03-29T11:14:13;15.00;99.90
30628;DHT22;17394;50.890;4.724;2024-03-29T11:16:51;14.80;99.90
30628;DHT22;17394;50.890;4.724;2024-03-29T11:19:22;14.90;99.90
30628;DHT22;17394;50.890;4.724;2024-03-29T11:21:52;15.10;99.90
30628;DHT22;17394;50.890;4.724;2024-03-29T11:24:19;15.10;99.90
30628;DHT22;17394;50.890;4.724;2024-03-29T11:26:50;15.10;99.90
30628;DHT22;17394;50.890;4.724;2024-03-29T11:29:24;15.20;99.90
30628;DHT22;17394;50.890;4.724;2024-03-29T11:32:02;15.20;99.90
30628;DHT22;17394;50.890;4.724;2024-03-29T11:34:32;15.30;99.90
30628;DHT22;17394;50.890;4.724;2024-03-29T11:37:12;15.50;99.90
30628;DHT22;17394;50.890;4.724;2024-03-29T11:39:47;15.60;99.90
30628;DHT22;17394;50.890;4.724;2024-03-29T11:42:14;15.60;99.90
30628;DHT22;17394;50.890;4.724;2024-03-29T11:44:41;15.60;99.90
30628;DHT22;17394;50.890;4.724;2024-03-29T11:47:14;15.60;99.90
30628;DHT22;17394;50.890;4.724;2024-03-29T11:49:45;15.50;99.90
30628;DHT22;17394;50.890;4.724;2024-03-29T11:52:18;15.30;99.90
30628;DHT22;17394;50.890;4.724;2024-03-29T11:54:44;15.30;99.90
30628;DHT22;17394;50.890;4.724;2024-03-29T11:57:11;15.20;99.90
30628;DHT22;17394;50.890;4.724;2024-03-29T11:59:40;15.20;99.90
30628;DHT22;17394;50.890;4.724;2024-03-29T12:02:13;15.40;99.90
30628;DHT22;17394;50.890;4.724;2024-03-29T12:04:49;15.40;99.90
30628;DHT22;17394;50.890;4.724;2024-03-29T12:07:20;15.50;99.90
30628;DHT22;17394;50.890;4.724;2024-03-29T12:09:46;15.70;99.90
30628;DHT22;17394;50.890;4.724;2024-03-29T12:12:13;15.80;99.90
30628;DHT22;17394;50.890;4.724;2024-03-29T12:14:43;15.70;99.90
30628;DHT22;17394;50.890;4.724;2024-03-29T12:17:12;15.70;99.90
30628;DHT22;17394;50.890;4.724;2024-03-29T12:19:39;15.70;99.90
30628;DHT22;17394;50.890;4.724;2024-03-29T12:22:08;15.70;99.90
30628;DHT22;17394;50.890;4.724;2024-03-29T12:24:36;15.70;99.90
30628;DHT22;17394;50.890;4.724;2024-03-29T12:27:03;15.90;99.90
30628;DHT22;17394;50.890;4.724;2024-03-29T12:29:30;16.10;99.90
30628;DHT22;17394;50.890;4.724;2024-03-29T12:32:00;16.10;99.90
30628;DHT22;17394;50.890;4.724;2024-03-29T12:34:27;16.10;99.90
30628;DHT22;17394;50.890;4.724;2024-03-29T12:36:53;16.20;99.90
30628;DHT22;17394;50.890;4.724;2024-03-29T12:39:19;16.30;99.90
30628;DHT22;17394;50.890;4.724;2024-03-29T12:41:47;16.50;99.90
30628;DHT22;17394;50.890;4.724;2024-03-29T12:44:13;16.60;99.90
30628;DHT22;17394;50.890;4.724;2024-03-29T12:46:40;16.70;99.90
30628;DHT22;17394;50.890;4.724;2024-03-29T12:49:06;16.80;99.90
30628;DHT22;17394;50.890;4.724;2024-03-29T12:51:32;16.90;99.90
30628;DHT22;17394;50.890;4.724;2024-03-29T12:54:02;16.90;99.90
30628;DHT22;17394;50.890;4.724;2024-03-29T12:56:32;17.00;99.90
30628;DHT22;17394;50.890;4.724;2024-03-29T12:59:03;16.90;99.90
30628;DHT22;17394;50.890;4.724;2024-03-29T13:01:30;16.90;99.90
30628;DHT22;17394;50.890;4.724;2024-03-29T13:04:00;16.80;99.90
30628;DHT22;17394;50.890;4.724;2024-03-29T13:06:27;16.80;99.90
30628;DHT22;17394;50.890;4.724;2024-03-29T13:08:59;16.90;99.90
30628;DHT22;17394;50.890;4.724;2024-03-29T13:11:28;17.00;99.90
30628;DHT22;17394;50.890;4.724;2024-03-29T13:13:57;16.90;99.90
30628;DHT22;17394;50.890;4.724;2024-03-29T13:16:26;16.70;99.90
30628;DHT22;17394;50.890;4.724;2024-03-29T13:18:55;16.80;99.90
30628;DHT22;17394;50.890;4.724;2024-03-29T13:21:21;16.90;99.90
30628;DHT22;17394;50.890;4.724;2024-03-29T13:23:48;17.00;99.90
30628;DHT22;17394;50.890;4.724;2024-03-29T13:26:17;17.00;99.90
30628;DHT22;17394;50.890;4.724;2024-03-29T13:28:43;17.00;99.90
30628;DHT22;17394;50.890;4.724;2024-03-29T13:31:09;17.00;99.90
30628;DHT22;17394;50.890;4.724;2024-03-29T13:33:36;17.00;99.90
30628;DHT22;17394;50.890;4.724;2024-03-29T13:36:09;17.00;99.90
30628;DHT22;17394;50.890;4.724;2024-03-29T13:38:35;16.80;99.90
30628;DHT22;17394;50.890;4.724;2024-03-29T13:41:07;16.70;99.90
30628;DHT22;17394;50.890;4.724;2024-03-29T13:43:36;16.70;99.90
30628;DHT22;17394;50.890;4.724;2024-03-29T13:46:07;16.60;99.90
30628;DHT22;17394;50.890;4.724;2024-03-29T13:48:34;16.50;99.90
30628;DHT22;17394;50.890;4.724;2024-03-29T13:51:01;16.40;99.90
30628;DHT22;17394;50.890;4.724;2024-03-29T13:53:33;16.40;99.90
30628;DHT22;17394;50.890;4.724;2024-03-29T13:56:01;16.50;99.90
30628;DHT22;17394;50.890;4.724;2024-03-29T13:58:35;16.40;99.90
30628;DHT22;17394;50.890;4.724;2024-03-29T14:01:02;16.30;99.90
30628;DHT22;17394;50.890;4.724;2024-03-29T14:03:29;16.30;99.90
30628;DHT22;17394;50.890;4.724;2024-03-29T14:05:55;16.50;99.90
30628;DHT22;17394;50.890;4.724;2024-03-29T14:08:21;16.50;99.90
30628;DHT22;17394;50.890;4.724;2024-03-29T14:10:50;16.40;99.90
30628;DHT22;17394;50.890;4.724;2024-03-29T14:13:22;16.30;99.90
30628;DHT22;17394;50.890;4.724;2024-03-29T14:15:49;16.20;99.90
30628;DHT22;17394;50.890;4.724;2024-03-29T14:18:18;16.30;99.90
30628;DHT22;17394;50.890;4.724;2024-03-29T14:20:45;16.20;99.90
30628;DHT22;17394;50.890;4.724;2024-03-29T14:23:12;16.20;99.90
30628;DHT22;17394;50.890;4.724;2024-03-29T14:25:41;16.20;99.90
30628;DHT22;17394;50.890;4.724;2024-03-29T14:28:10;16.30;99.90
30628;DHT22;17394;50.890;4.724;2024-03-29T14:30:37;16.40;99.90
30628;DHT22;17394;50.890;4.724;2024-03-29T14:33:04;16.40;99.90
30628;DHT22;17394;50.890;4.724;2024-03-29T14:35:34;16.30;99.90
30628;DHT22;17394;50.890;4.724;2024-03-29T14:38:01;16.40;99.90
30628;DHT22;17394;50.890;4.724;2024-03-29T14:40:28;16.30;99.90
30628;DHT22;17394;50.890;4.724;2024-03-29T14:42:54;16.40;99.90
30628;DHT22;17394;50.890;4.724;2024-03-29T14:45:26;16.30;99.90
30628;DHT22;17394;50.890;4.724;2024-03-29T14:47:58;16.40;99.90
30628;DHT22;17394;50.890;4.724;2024-03-29T14:50:27;16.30;99.90
30628;DHT22;17394;50.890;4.724;2024-03-29T14:52:59;16.20;99.90
30628;DHT22;17394;50.890;4.724;2024-03-29T14:55:27;16.30;99.90
30628;DHT22;17394;50.890;4.724;2024-03-29T14:57:53;16.40;99.90
30628;DHT22;17394;50.890;4.724;2024-03-29T15:00:20;16.50;99.90
30628;DHT22;17394;50.890;4.724;2024-03-29T15:02:48;16.40;99.90
30628;DHT22;17394;50.890;4.724;2024-03-29T15:05:15;16.10;99.90
30628;DHT22;17394;50.890;4.724;2024-03-29T15:07:44;16.10;99.90
30628;DHT22;17394;50.890;4.724;2024-03-29T15:10:10;16.30;99.90
30628;DHT22;17394;50.890;4.724;2024-03-29T15:12:38;16.40;99.90
30628;DHT22;17394;50.890;4.724;2024-03-29T15:15:08;16.40;99.90
30628;DHT22;17394;50.890;4.724;2024-03-29T15:17:35;16.30;99.90
30628;DHT22;17394;50.890;4.724;2024-03-29T15:20:01;16.30;99.90
30628;DHT22;17394;50.890;4.724;2024-03-29T15:22:31;16.40;99.90
30628;DHT22;17394;50.890;4.724;2024-03-29T15:24:59;16.30;99.90
30628;DHT22;17394;50.890;4.724;2024-03-29T15:27:26;16.20;99.90
30628;DHT22;17394;50.890;4.724;2024-03-29T15:30:11;16.10;99.90
30628;DHT22;17394;50.890;4.724;2024-03-29T15:32:37;16.00;99.90
30628;DHT22;17394;50.890;4.724;2024-03-29T15:35:06;15.90;99.90
30628;DHT22;17394;50.890;4.724;2024-03-29T15:37:32;15.70;99.90
30628;DHT22;17394;50.890;4.724;2024-03-29T15:40:05;15.70;99.90
30628;DHT22;17394;50.890;4.724;2024-03-29T15:42:38;15.80;99.90
30628;DHT22;17394;50.890;4.724;2024-03-29T15:45:11;15.70;99.90